sensor_id;sensor_type;location;lat;lon;timestamp;P1;durP1;ratioP1;P2;durP2;ratioP2
44366;SDS011;30086;57.660;12.000;2022-10-16T00:01:53;22.48;;;5.70;;
44366;SDS011;30086;57.660;12.000;2022-10-16T00:04:19;20.63;;;5.95;;
44366;SDS011;30086;57.660;12.000;2022-10-16T00:06:45;16.15;;;5.10;;
44366;SDS011;30086;57.660;12.000;2022-10-16T00:09:11;21.85;;;4.93;;
44366;SDS011;30086;57.660;12.000;2022-10-16T00:11:38;20.00;;;5.07;;
44366;SDS011;30086;57.660;12.000;2022-10-16T00:14:10;24.38;;;5.65;;
44366;SDS011;30086;57.660;12.000;2022-10-16T00:16:38;22.20;;;5.75;;
44366;SDS011;30086;57.660;12.000;2022-10-16T00:19:06;19.13;;;4.20;;
44366;SDS011;30086;57.660;12.000;2022-10-16T00:21:32;21.75;;;4.82;;
44366;SDS011;30086;57.660;12.000;2022-10-16T00:24:03;23.83;;;4.60;;
44366;SDS011;30086;57.660;12.000;2022-10-16T00:26:32;15.98;;;4.20;;
44366;SDS011;30086;57.660;12.000;2022-10-16T00:29:17;20.73;;;4.05;;
44366;SDS011;30086;57.660;12.000;2022-10-16T00:31:43;16.77;;;4.43;;
44366;SDS011;30086;57.660;12.000;2022-10-16T00:34:29;30.48;;;4.07;;
44366;SDS011;30086;57.660;12.000;2022-10-16T00:36:58;14.25;;;4.03;;
44366;SDS011;30086;57.660;12.000;2022-10-16T00:39:25;11.65;;;3.42;;
44366;SDS011;30086;57.660;12.000;2022-10-16T00:42:01;13.50;;;3.80;;
44366;SDS011;30086;57.660;12.000;2022-10-16T00:44:50;13.90;;;3.72;;
44366;SDS011;30086;57.660;12.000;2022-10-16T00:47:30;18.00;;;3.47;;
44366;SDS011;30086;57.660;12.000;2022-10-16T00:50:02;16.65;;;3.45;;
44366;SDS011;30086;57.660;12.000;2022-10-16T00:52:31;17.05;;;3.75;;
44366;SDS011;30086;57.660;12.000;2022-10-16T00:54:59;17.00;;;3.38;;
44366;SDS011;30086;57.660;12.000;2022-10-16T00:57:25;11.98;;;2.88;;
44366;SDS011;30086;57.660;12.000;2022-10-16T00:59:52;17.27;;;2.97;;
44366;SDS011;30086;57.660;12.000;2022-10-16T01:02:19;7.88;;;2.85;;
44366;SDS011;30086;57.660;12.000;2022-10-16T01:04:49;16.48;;;3.45;;
44366;SDS011;30086;57.660;12.000;2022-10-16T01:12:46;13.10;;;3.17;;
44366;SDS011;30086;57.660;12.000;2022-10-16T01:20:54;21.45;;;3.90;;
44366;SDS011;30086;57.660;12.000;2022-10-16T01:26:10;17.10;;;3.13;;
44366;SDS011;30086;57.660;12.000;2022-10-16T01:31:05;17.40;;;3.42;;
44366;SDS011;30086;57.660;12.000;2022-10-16T01:33:37;18.55;;;3.00;;
44366;SDS011;30086;57.660;12.000;2022-10-16T01:36:07;18.40;;;3.13;;
44366;SDS011;30086;57.660;12.000;2022-10-16T01:38:36;15.70;;;3.22;;
44366;SDS011;30086;57.660;12.000;2022-10-16T01:41:14;14.55;;;3.08;;
44366;SDS011;30086;57.660;12.000;2022-10-16T01:43:43;16.30;;;3.58;;
44366;SDS011;30086;57.660;12.000;2022-10-16T01:46:11;19.83;;;3.20;;
44366;SDS011;30086;57.660;12.000;2022-10-16T01:48:38;15.98;;;4.05;;
44366;SDS011;30086;57.660;12.000;2022-10-16T01:51:08;11.13;;;2.42;;
44366;SDS011;30086;57.660;12.000;2022-10-16T01:53:36;19.73;;;2.70;;
44366;SDS011;30086;57.660;12.000;2022-10-16T01:56:03;20.63;;;3.58;;
44366;SDS011;30086;57.660;12.000;2022-10-16T01:58:31;13.00;;;3.33;;
44366;SDS011;30086;57.660;12.000;2022-10-16T02:00:59;12.30;;;2.55;;
44366;SDS011;30086;57.660;12.000;2022-10-16T02:03:27;18.73;;;2.80;;
44366;SDS011;30086;57.660;12.000;2022-10-16T02:05:53;14.57;;;2.95;;
44366;SDS011;30086;57.660;12.000;2022-10-16T02:08:21;13.30;;;3.08;;
44366;SDS011;30086;57.660;12.000;2022-10-16T02:10:48;19.00;;;3.22;;
44366;SDS011;30086;57.660;12.000;2022-10-16T02:13:22;16.25;;;3.60;;
44366;SDS011;30086;57.660;12.000;2022-10-16T02:15:49;15.82;;;3.28;;
44366;SDS011;30086;57.660;12.000;2022-10-16T02:18:15;19.08;;;3.72;;
44366;SDS011;30086;57.660;12.000;2022-10-16T02:20:48;19.35;;;4.05;;
44366;SDS011;30086;57.660;12.000;2022-10-16T02:23:19;17.65;;;3.72;;
44366;SDS011;30086;57.660;12.000;2022-10-16T02:25:46;17.60;;;4.43;;
44366;SDS011;30086;57.660;12.000;2022-10-16T02:28:16;20.50;;;4.07;;
44366;SDS011;30086;57.660;12.000;2022-10-16T02:31:18;23.10;;;3.63;;
44366;SDS011;30086;57.660;12.000;2022-10-16T02:33:37;10.18;;;3.72;;
44366;SDS011;30086;57.660;12.000;2022-10-16T02:36:03;17.63;;;3.97;;
44366;SDS011;30086;57.660;12.000;2022-10-16T02:38:30;14.23;;;4.22;;
44366;SDS011;30086;57.660;12.000;2022-10-16T02:40:56;19.10;;;3.85;;
44366;SDS011;30086;57.660;12.000;2022-10-16T02:43:24;22.48;;;4.93;;
44366;SDS011;30086;57.660;12.000;2022-10-16T02:45:51;25.17;;;3.67;;
44366;SDS011;30086;57.660;12.000;2022-10-16T02:48:17;17.08;;;3.15;;
44366;SDS011;30086;57.660;12.000;2022-10-16T02:50:43;21.52;;;4.28;;
44366;SDS011;30086;57.660;12.000;2022-10-16T02:53:09;19.05;;;3.53;;
44366;SDS011;30086;57.660;12.000;2022-10-16T02:55:35;15.52;;;3.90;;
44366;SDS011;30086;57.660;12.000;2022-10-16T02:58:01;17.33;;;3.05;;
44366;SDS011;30086;57.660;12.000;2022-10-16T03:00:27;22.98;;;3.88;;
44366;SDS011;30086;57.660;12.000;2022-10-16T03:02:53;20.25;;;3.35;;
44366;SDS011;30086;57.660;12.000;2022-10-16T03:05:22;13.88;;;3.33;;
44366;SDS011;30086;57.660;12.000;2022-10-16T03:07:48;17.63;;;3.38;;
44366;SDS011;30086;57.660;12.000;2022-10-16T03:10:17;27.55;;;3.88;;
44366;SDS011;30086;57.660;12.000;2022-10-16T03:12:43;18.67;;;3.40;;
44366;SDS011;30086;57.660;12.000;2022-10-16T03:15:11;16.30;;;3.53;;
44366;SDS011;30086;57.660;12.000;2022-10-16T03:17:38;14.77;;;3.70;;
44366;SDS011;30086;57.660;12.000;2022-10-16T03:20:06;15.75;;;3.58;;
44366;SDS011;30086;57.660;12.000;2022-10-16T03:22:32;21.98;;;4.05;;
44366;SDS011;30086;57.660;12.000;2022-10-16T03:24:58;19.30;;;3.42;;
44366;SDS011;30086;57.660;12.000;2022-10-16T03:27:26;18.08;;;3.60;;
44366;SDS011;30086;57.660;12.000;2022-10-16T03:29:52;21.13;;;4.15;;
44366;SDS011;30086;57.660;12.000;2022-10-16T03:32:18;23.77;;;3.65;;
44366;SDS011;30086;57.660;12.000;2022-10-16T03:34:45;15.48;;;4.78;;
44366;SDS011;30086;57.660;12.000;2022-10-16T03:37:11;25.42;;;4.25;;
44366;SDS011;30086;57.660;12.000;2022-10-16T03:39:38;19.75;;;4.00;;
44366;SDS011;30086;57.660;12.000;2022-10-16T03:42:04;19.48;;;4.10;;
44366;SDS011;30086;57.660;12.000;2022-10-16T03:44:30;17.35;;;3.70;;
44366;SDS011;30086;57.660;12.000;2022-10-16T03:46:56;22.80;;;4.60;;
44366;SDS011;30086;57.660;12.000;2022-10-16T03:49:22;12.65;;;3.65;;
44366;SDS011;30086;57.660;12.000;2022-10-16T03:51:48;16.98;;;4.20;;
44366;SDS011;30086;57.660;12.000;2022-10-16T03:54:14;17.20;;;4.00;;
44366;SDS011;30086;57.660;12.000;2022-10-16T03:56:40;25.52;;;4.85;;
44366;SDS011;30086;57.660;12.000;2022-10-16T03:59:06;22.42;;;4.20;;
44366;SDS011;30086;57.660;12.000;2022-10-16T04:01:32;20.77;;;4.68;;
44366;SDS011;30086;57.660;12.000;2022-10-16T04:03:58;21.73;;;5.22;;
44366;SDS011;30086;57.660;12.000;2022-10-16T04:06:25;22.08;;;4.55;;
44366;SDS011;30086;57.660;12.000;2022-10-16T04:08:51;17.73;;;4.57;;
44366;SDS011;30086;57.660;12.000;2022-10-16T04:11:17;19.88;;;5.25;;
44366;SDS011;30086;57.660;12.000;2022-10-16T04:13:43;27.83;;;4.80;;
44366;SDS011;30086;57.660;12.000;2022-10-16T04:16:09;22.80;;;4.95;;
44366;SDS011;30086;57.660;12.000;2022-10-16T04:18:35;20.40;;;4.63;;
44366;SDS011;30086;57.660;12.000;2022-10-16T04:21:02;17.88;;;5.20;;
44366;SDS011;30086;57.660;12.000;2022-10-16T04:23:28;26.55;;;5.22;;
44366;SDS011;30086;57.660;12.000;2022-10-16T04:25:54;17.88;;;5.57;;
44366;SDS011;30086;57.660;12.000;2022-10-16T04:28:20;38.22;;;6.47;;
44366;SDS011;30086;57.660;12.000;2022-10-16T04:30:46;26.38;;;6.40;;
44366;SDS011;30086;57.660;12.000;2022-10-16T04:33:12;27.90;;;5.93;;
44366;SDS011;30086;57.660;12.000;2022-10-16T04:35:38;24.25;;;6.13;;
44366;SDS011;30086;57.660;12.000;2022-10-16T04:38:04;25.38;;;6.03;;
44366;SDS011;30086;57.660;12.000;2022-10-16T04:40:30;27.58;;;6.82;;
44366;SDS011;30086;57.660;12.000;2022-10-16T04:43:04;30.30;;;6.25;;
44366;SDS011;30086;57.660;12.000;2022-10-16T04:45:30;39.97;;;6.65;;
44366;SDS011;30086;57.660;12.000;2022-10-16T04:47:57;26.42;;;6.93;;
44366;SDS011;30086;57.660;12.000;2022-10-16T04:50:23;25.13;;;6.70;;
44366;SDS011;30086;57.660;12.000;2022-10-16T04:52:49;27.00;;;6.78;;
44366;SDS011;30086;57.660;12.000;2022-10-16T04:55:15;27.85;;;6.68;;
44366;SDS011;30086;57.660;12.000;2022-10-16T04:57:41;26.23;;;7.18;;
44366;SDS011;30086;57.660;12.000;2022-10-16T05:00:07;28.80;;;7.30;;
44366;SDS011;30086;57.660;12.000;2022-10-16T05:02:34;23.08;;;6.95;;
44366;SDS011;30086;57.660;12.000;2022-10-16T05:05:00;25.83;;;6.85;;
44366;SDS011;30086;57.660;12.000;2022-10-16T05:07:26;26.30;;;7.15;;
44366;SDS011;30086;57.660;12.000;2022-10-16T05:09:52;34.92;;;7.13;;
44366;SDS011;30086;57.660;12.000;2022-10-16T05:12:18;22.40;;;7.03;;
44366;SDS011;30086;57.660;12.000;2022-10-16T05:14:44;21.30;;;6.15;;
44366;SDS011;30086;57.660;12.000;2022-10-16T05:17:10;27.80;;;7.32;;
44366;SDS011;30086;57.660;12.000;2022-10-16T05:19:36;28.90;;;7.50;;
44366;SDS011;30086;57.660;12.000;2022-10-16T05:22:03;35.33;;;6.85;;
44366;SDS011;30086;57.660;12.000;2022-10-16T05:24:30;23.70;;;6.53;;
44366;SDS011;30086;57.660;12.000;2022-10-16T05:26:59;26.70;;;7.65;;
44366;SDS011;30086;57.660;12.000;2022-10-16T05:29:28;27.90;;;6.97;;
44366;SDS011;30086;57.660;12.000;2022-10-16T05:31:54;27.48;;;7.55;;
44366;SDS011;30086;57.660;12.000;2022-10-16T05:34:20;26.95;;;7.50;;
44366;SDS011;30086;57.660;12.000;2022-10-16T05:36:49;24.35;;;7.63;;
44366;SDS011;30086;57.660;12.000;2022-10-16T05:39:15;30.27;;;9.10;;
44366;SDS011;30086;57.660;12.000;2022-10-16T05:41:42;34.90;;;8.02;;
44366;SDS011;30086;57.660;12.000;2022-10-16T05:44:08;25.10;;;7.00;;
44366;SDS011;30086;57.660;12.000;2022-10-16T05:46:36;26.45;;;7.05;;
44366;SDS011;30086;57.660;12.000;2022-10-16T05:49:02;30.13;;;8.13;;
44366;SDS011;30086;57.660;12.000;2022-10-16T05:51:28;28.23;;;7.60;;
44366;SDS011;30086;57.660;12.000;2022-10-16T05:53:54;33.33;;;8.18;;
44366;SDS011;30086;57.660;12.000;2022-10-16T05:56:20;25.02;;;7.97;;
44366;SDS011;30086;57.660;12.000;2022-10-16T05:58:46;33.25;;;8.35;;
44366;SDS011;30086;57.660;12.000;2022-10-16T06:01:17;26.75;;;9.77;;
44366;SDS011;30086;57.660;12.000;2022-10-16T06:03:44;30.27;;;10.18;;
44366;SDS011;30086;57.660;12.000;2022-10-16T06:06:11;29.75;;;9.68;;
44366;SDS011;30086;57.660;12.000;2022-10-16T06:08:39;41.65;;;11.75;;
44366;SDS011;30086;57.660;12.000;2022-10-16T06:11:07;28.85;;;11.95;;
44366;SDS011;30086;57.660;12.000;2022-10-16T06:13:33;41.42;;;12.45;;
44366;SDS011;30086;57.660;12.000;2022-10-16T06:16:00;40.30;;;12.35;;
44366;SDS011;30086;57.660;12.000;2022-10-16T06:18:26;36.55;;;11.23;;
44366;SDS011;30086;57.660;12.000;2022-10-16T06:20:53;30.05;;;11.80;;
44366;SDS011;30086;57.660;12.000;2022-10-16T06:23:23;32.78;;;11.10;;
44366;SDS011;30086;57.660;12.000;2022-10-16T06:25:49;33.50;;;10.63;;
44366;SDS011;30086;57.660;12.000;2022-10-16T06:28:15;33.97;;;10.52;;
44366;SDS011;30086;57.660;12.000;2022-10-16T06:30:42;28.27;;;8.93;;
44366;SDS011;30086;57.660;12.000;2022-10-16T06:33:09;24.25;;;8.38;;
44366;SDS011;30086;57.660;12.000;2022-10-16T06:35:36;16.67;;;6.90;;
44366;SDS011;30086;57.660;12.000;2022-10-16T06:38:02;24.90;;;7.15;;
44366;SDS011;30086;57.660;12.000;2022-10-16T06:40:28;21.35;;;7.60;;
44366;SDS011;30086;57.660;12.000;2022-10-16T06:42:55;20.20;;;7.15;;
44366;SDS011;30086;57.660;12.000;2022-10-16T06:45:22;21.13;;;6.40;;
44366;SDS011;30086;57.660;12.000;2022-10-16T06:47:48;27.63;;;6.93;;
44366;SDS011;30086;57.660;12.000;2022-10-16T06:50:14;28.20;;;6.38;;
44366;SDS011;30086;57.660;12.000;2022-10-16T06:52:40;13.95;;;5.50;;
44366;SDS011;30086;57.660;12.000;2022-10-16T06:55:07;23.38;;;5.70;;
44366;SDS011;30086;57.660;12.000;2022-10-16T06:57:33;22.35;;;5.22;;
44366;SDS011;30086;57.660;12.000;2022-10-16T06:59:59;19.98;;;6.30;;
44366;SDS011;30086;57.660;12.000;2022-10-16T07:02:25;11.60;;;4.25;;
44366;SDS011;30086;57.660;12.000;2022-10-16T07:04:51;18.63;;;4.68;;
44366;SDS011;30086;57.660;12.000;2022-10-16T07:07:20;21.63;;;4.35;;
44366;SDS011;30086;57.660;12.000;2022-10-16T07:09:59;13.18;;;3.58;;
44366;SDS011;30086;57.660;12.000;2022-10-16T07:12:28;23.67;;;3.88;;
44366;SDS011;30086;57.660;12.000;2022-10-16T07:14:54;15.73;;;3.83;;
44366;SDS011;30086;57.660;12.000;2022-10-16T07:17:27;10.27;;;3.20;;
44366;SDS011;30086;57.660;12.000;2022-10-16T07:20:17;15.98;;;3.65;;
44366;SDS011;30086;57.660;12.000;2022-10-16T07:22:46;11.43;;;3.03;;
44366;SDS011;30086;57.660;12.000;2022-10-16T07:25:12;17.05;;;3.92;;
44366;SDS011;30086;57.660;12.000;2022-10-16T07:27:42;15.25;;;4.10;;
44366;SDS011;30086;57.660;12.000;2022-10-16T07:30:08;10.43;;;2.50;;
44366;SDS011;30086;57.660;12.000;2022-10-16T07:32:34;14.75;;;2.63;;
44366;SDS011;30086;57.660;12.000;2022-10-16T07:35:04;13.48;;;2.97;;
44366;SDS011;30086;57.660;12.000;2022-10-16T07:37:36;14.98;;;2.88;;
44366;SDS011;30086;57.660;12.000;2022-10-16T07:40:02;13.27;;;2.88;;
44366;SDS011;30086;57.660;12.000;2022-10-16T07:42:29;16.27;;;2.80;;
44366;SDS011;30086;57.660;12.000;2022-10-16T07:44:55;14.93;;;3.13;;
44366;SDS011;30086;57.660;12.000;2022-10-16T07:47:24;17.40;;;2.95;;
44366;SDS011;30086;57.660;12.000;2022-10-16T07:49:50;13.75;;;2.92;;
44366;SDS011;30086;57.660;12.000;2022-10-16T07:52:16;20.35;;;2.72;;
44366;SDS011;30086;57.660;12.000;2022-10-16T07:54:42;21.23;;;4.20;;
44366;SDS011;30086;57.660;12.000;2022-10-16T07:57:11;14.50;;;2.38;;
44366;SDS011;30086;57.660;12.000;2022-10-16T07:59:43;13.80;;;2.80;;
44366;SDS011;30086;57.660;12.000;2022-10-16T08:02:09;15.40;;;3.78;;
44366;SDS011;30086;57.660;12.000;2022-10-16T08:04:35;17.83;;;3.25;;
44366;SDS011;30086;57.660;12.000;2022-10-16T08:07:03;17.10;;;4.25;;
44366;SDS011;30086;57.660;12.000;2022-10-16T08:09:29;15.55;;;2.80;;
44366;SDS011;30086;57.660;12.000;2022-10-16T08:11:58;18.75;;;3.58;;
44366;SDS011;30086;57.660;12.000;2022-10-16T08:14:27;16.02;;;3.45;;
44366;SDS011;30086;57.660;12.000;2022-10-16T08:17:16;18.70;;;4.28;;
44366;SDS011;30086;57.660;12.000;2022-10-16T08:19:45;17.42;;;3.63;;
44366;SDS011;30086;57.660;12.000;2022-10-16T08:22:15;13.43;;;4.00;;
44366;SDS011;30086;57.660;12.000;2022-10-16T08:24:47;21.90;;;3.10;;
44366;SDS011;30086;57.660;12.000;2022-10-16T08:27:13;18.38;;;3.60;;
44366;SDS011;30086;57.660;12.000;2022-10-16T08:29:41;19.50;;;3.70;;
44366;SDS011;30086;57.660;12.000;2022-10-16T08:32:08;22.20;;;3.92;;
44366;SDS011;30086;57.660;12.000;2022-10-16T08:37:09;16.33;;;2.97;;
44366;SDS011;30086;57.660;12.000;2022-10-16T08:39:38;18.83;;;6.72;;
44366;SDS011;30086;57.660;12.000;2022-10-16T08:50:26;20.98;;;3.17;;
44366;SDS011;30086;57.660;12.000;2022-10-16T08:52:53;17.33;;;3.20;;
44366;SDS011;30086;57.660;12.000;2022-10-16T08:57:57;21.13;;;3.50;;
44366;SDS011;30086;57.660;12.000;2022-10-16T09:00:27;23.05;;;4.53;;
44366;SDS011;30086;57.660;12.000;2022-10-16T09:11:53;16.95;;;3.40;;
44366;SDS011;30086;57.660;12.000;2022-10-16T09:19:41;22.15;;;3.67;;
44366;SDS011;30086;57.660;12.000;2022-10-16T09:22:19;22.45;;;4.57;;
44366;SDS011;30086;57.660;12.000;2022-10-16T09:25:01;19.35;;;3.90;;
44366;SDS011;30086;57.660;12.000;2022-10-16T09:27:35;25.83;;;5.45;;
44366;SDS011;30086;57.660;12.000;2022-10-16T09:30:26;29.10;;;4.45;;
44366;SDS011;30086;57.660;12.000;2022-10-16T09:32:52;18.45;;;4.38;;
44366;SDS011;30086;57.660;12.000;2022-10-16T09:35:20;18.17;;;3.22;;
44366;SDS011;30086;57.660;12.000;2022-10-16T09:37:50;25.83;;;4.65;;
44366;SDS011;30086;57.660;12.000;2022-10-16T09:40:35;23.90;;;4.85;;
44366;SDS011;30086;57.660;12.000;2022-10-16T09:43:26;27.85;;;4.28;;
44366;SDS011;30086;57.660;12.000;2022-10-16T09:45:59;22.55;;;4.38;;
44366;SDS011;30086;57.660;12.000;2022-10-16T09:48:48;15.43;;;4.30;;
44366;SDS011;30086;57.660;12.000;2022-10-16T09:51:25;19.67;;;3.92;;
44366;SDS011;30086;57.660;12.000;2022-10-16T09:54:02;26.40;;;4.68;;
44366;SDS011;30086;57.660;12.000;2022-10-16T09:56:37;22.35;;;4.43;;
44366;SDS011;30086;57.660;12.000;2022-10-16T09:59:11;19.83;;;4.38;;
44366;SDS011;30086;57.660;12.000;2022-10-16T10:04:04;20.08;;;4.10;;
44366;SDS011;30086;57.660;12.000;2022-10-16T10:06:52;20.77;;;4.75;;
44366;SDS011;30086;57.660;12.000;2022-10-16T10:09:23;29.73;;;5.47;;
44366;SDS011;30086;57.660;12.000;2022-10-16T10:11:56;24.45;;;3.55;;
44366;SDS011;30086;57.660;12.000;2022-10-16T10:14:38;21.77;;;3.95;;
44366;SDS011;30086;57.660;12.000;2022-10-16T10:19:42;20.60;;;5.63;;
44366;SDS011;30086;57.660;12.000;2022-10-16T10:22:22;23.83;;;4.35;;
44366;SDS011;30086;57.660;12.000;2022-10-16T10:25:00;10.85;;;3.58;;
44366;SDS011;30086;57.660;12.000;2022-10-16T10:27:30;18.70;;;4.38;;
44366;SDS011;30086;57.660;12.000;2022-10-16T10:30:04;18.42;;;3.15;;
44366;SDS011;30086;57.660;12.000;2022-10-16T10:32:48;20.02;;;3.38;;
44366;SDS011;30086;57.660;12.000;2022-10-16T10:35:38;23.48;;;5.05;;
44366;SDS011;30086;57.660;12.000;2022-10-16T10:43:13;24.80;;;3.88;;
44366;SDS011;30086;57.660;12.000;2022-10-16T10:45:42;22.95;;;4.55;;
44366;SDS011;30086;57.660;12.000;2022-10-16T10:50:57;31.90;;;6.32;;
44366;SDS011;30086;57.660;12.000;2022-10-16T10:56:14;30.48;;;6.18;;
44366;SDS011;30086;57.660;12.000;2022-10-16T11:02:00;34.75;;;6.13;;
44366;SDS011;30086;57.660;12.000;2022-10-16T11:05:10;24.10;;;5.93;;
44366;SDS011;30086;57.660;12.000;2022-10-16T11:07:49;33.55;;;6.47;;
44366;SDS011;30086;57.660;12.000;2022-10-16T11:10:24;33.53;;;5.28;;
44366;SDS011;30086;57.660;12.000;2022-10-16T11:12:58;28.10;;;10.52;;
44366;SDS011;30086;57.660;12.000;2022-10-16T11:15:31;34.42;;;6.15;;
44366;SDS011;30086;57.660;12.000;2022-10-16T11:20:26;28.23;;;4.60;;
44366;SDS011;30086;57.660;12.000;2022-10-16T11:25:26;24.80;;;5.32;;
44366;SDS011;30086;57.660;12.000;2022-10-16T11:30:41;25.55;;;9.23;;
44366;SDS011;30086;57.660;12.000;2022-10-16T11:33:24;40.03;;;5.28;;
44366;SDS011;30086;57.660;12.000;2022-10-16T11:36:07;26.88;;;4.72;;
44366;SDS011;30086;57.660;12.000;2022-10-16T11:46:52;14.85;;;3.28;;
44366;SDS011;30086;57.660;12.000;2022-10-16T11:49:25;19.83;;;3.80;;
44366;SDS011;30086;57.660;12.000;2022-10-16T11:56:57;25.02;;;4.63;;
44366;SDS011;30086;57.660;12.000;2022-10-16T11:59:31;26.02;;;3.55;;
44366;SDS011;30086;57.660;12.000;2022-10-16T12:07:11;12.02;;;4.47;;
44366;SDS011;30086;57.660;12.000;2022-10-16T12:09:40;20.42;;;3.17;;
44366;SDS011;30086;57.660;12.000;2022-10-16T12:19:56;0.00;;;0.00;;
44366;SDS011;30086;57.660;12.000;2022-10-16T12:22:22;27.65;;;3.28;;
44366;SDS011;30086;57.660;12.000;2022-10-16T12:24:51;29.83;;;4.47;;
44366;SDS011;30086;57.660;12.000;2022-10-16T12:27:27;39.20;;;3.85;;
44366;SDS011;30086;57.660;12.000;2022-10-16T12:30:20;31.70;;;5.38;;
44366;SDS011;30086;57.660;12.000;2022-10-16T12:32:52;34.42;;;4.03;;
44366;SDS011;30086;57.660;12.000;2022-10-16T12:35:20;0.00;;;0.00;;
44366;SDS011;30086;57.660;12.000;2022-10-16T12:37:50;3.35;;;0.60;;
44366;SDS011;30086;57.660;12.000;2022-10-16T12:40:28;0.00;;;0.00;;
44366;SDS011;30086;57.660;12.000;2022-10-16T12:42:55;0.00;;;0.00;;
44366;SDS011;30086;57.660;12.000;2022-10-16T12:47:51;0.08;;;0.08;;
44366;SDS011;30086;57.660;12.000;2022-10-16T12:52:51;0.00;;;0.00;;
44366;SDS011;30086;57.660;12.000;2022-10-16T12:55:18;29.40;;;3.80;;
44366;SDS011;30086;57.660;12.000;2022-10-16T12:58:06;17.00;;;3.25;;
44366;SDS011;30086;57.660;12.000;2022-10-16T13:28:57;13.65;;;2.45;;
44366;SDS011;30086;57.660;12.000;2022-10-16T13:31:24;15.43;;;3.28;;
44366;SDS011;30086;57.660;12.000;2022-10-16T13:33:51;17.40;;;4.43;;
44366;SDS011;30086;57.660;12.000;2022-10-16T13:36:24;12.70;;;2.58;;
44366;SDS011;30086;57.660;12.000;2022-10-16T13:41:35;15.15;;;2.78;;
44366;SDS011;30086;57.660;12.000;2022-10-16T13:44:02;12.48;;;5.28;;
44366;SDS011;30086;57.660;12.000;2022-10-16T13:46:28;8.75;;;2.30;;
44366;SDS011;30086;57.660;12.000;2022-10-16T13:49:00;19.63;;;12.52;;
44366;SDS011;30086;57.660;12.000;2022-10-16T13:51:27;15.82;;;6.00;;
44366;SDS011;30086;57.660;12.000;2022-10-16T13:53:54;18.35;;;11.05;;
44366;SDS011;30086;57.660;12.000;2022-10-16T13:56:22;17.08;;;2.92;;
44366;SDS011;30086;57.660;12.000;2022-10-16T13:59:00;10.38;;;2.97;;
44366;SDS011;30086;57.660;12.000;2022-10-16T14:01:42;9.20;;;2.33;;
44366;SDS011;30086;57.660;12.000;2022-10-16T14:04:10;13.98;;;4.85;;
44366;SDS011;30086;57.660;12.000;2022-10-16T14:06:36;12.02;;;7.50;;
44366;SDS011;30086;57.660;12.000;2022-10-16T14:09:07;13.30;;;2.92;;
44366;SDS011;30086;57.660;12.000;2022-10-16T14:11:36;26.35;;;5.03;;
44366;SDS011;30086;57.660;12.000;2022-10-16T14:14:04;13.65;;;3.28;;
44366;SDS011;30086;57.660;12.000;2022-10-16T14:16:31;16.73;;;2.22;;
44366;SDS011;30086;57.660;12.000;2022-10-16T14:19:00;15.43;;;2.60;;
44366;SDS011;30086;57.660;12.000;2022-10-16T14:21:27;20.95;;;3.80;;
44366;SDS011;30086;57.660;12.000;2022-10-16T14:23:55;14.88;;;2.85;;
44366;SDS011;30086;57.660;12.000;2022-10-16T14:26:27;19.67;;;3.53;;
44366;SDS011;30086;57.660;12.000;2022-10-16T14:29:08;18.80;;;2.65;;
44366;SDS011;30086;57.660;12.000;2022-10-16T14:31:38;17.00;;;3.38;;
44366;SDS011;30086;57.660;12.000;2022-10-16T14:34:21;21.80;;;3.47;;
44366;SDS011;30086;57.660;12.000;2022-10-16T14:36:50;19.58;;;3.58;;
44366;SDS011;30086;57.660;12.000;2022-10-16T14:39:20;17.83;;;4.65;;
44366;SDS011;30086;57.660;12.000;2022-10-16T14:41:48;18.33;;;3.47;;
44366;SDS011;30086;57.660;12.000;2022-10-16T14:44:14;14.20;;;3.83;;
44366;SDS011;30086;57.660;12.000;2022-10-16T14:46:41;21.02;;;3.10;;
44366;SDS011;30086;57.660;12.000;2022-10-16T14:51:34;8.75;;;2.30;;
44366;SDS011;30086;57.660;12.000;2022-10-16T14:54:01;17.77;;;3.45;;
44366;SDS011;30086;57.660;12.000;2022-10-16T14:56:30;23.10;;;3.50;;
44366;SDS011;30086;57.660;12.000;2022-10-16T14:58:56;19.70;;;3.38;;
44366;SDS011;30086;57.660;12.000;2022-10-16T15:01:25;18.52;;;4.70;;
44366;SDS011;30086;57.660;12.000;2022-10-16T15:03:51;23.25;;;4.07;;
44366;SDS011;30086;57.660;12.000;2022-10-16T15:06:20;17.63;;;3.80;;
44366;SDS011;30086;57.660;12.000;2022-10-16T15:08:47;18.67;;;4.03;;
44366;SDS011;30086;57.660;12.000;2022-10-16T15:11:17;21.75;;;3.13;;
44366;SDS011;30086;57.660;12.000;2022-10-16T15:13:44;22.38;;;4.30;;
44366;SDS011;30086;57.660;12.000;2022-10-16T15:16:12;19.95;;;3.92;;
44366;SDS011;30086;57.660;12.000;2022-10-16T15:18:55;17.80;;;5.22;;
44366;SDS011;30086;57.660;12.000;2022-10-16T15:21:24;16.95;;;8.10;;
44366;SDS011;30086;57.660;12.000;2022-10-16T15:23:51;17.63;;;3.38;;
44366;SDS011;30086;57.660;12.000;2022-10-16T15:26:17;22.83;;;6.70;;
44366;SDS011;30086;57.660;12.000;2022-10-16T15:28:43;14.27;;;3.38;;
44366;SDS011;30086;57.660;12.000;2022-10-16T15:31:10;28.73;;;4.80;;
44366;SDS011;30086;57.660;12.000;2022-10-16T15:33:36;20.58;;;4.38;;
44366;SDS011;30086;57.660;12.000;2022-10-16T15:36:02;0.10;;;0.10;;
44366;SDS011;30086;57.660;12.000;2022-10-16T15:38:28;20.35;;;4.07;;
44366;SDS011;30086;57.660;12.000;2022-10-16T15:40:55;12.20;;;4.43;;
44366;SDS011;30086;57.660;12.000;2022-10-16T15:43:21;24.05;;;3.75;;
44366;SDS011;30086;57.660;12.000;2022-10-16T15:46:06;17.38;;;3.50;;
44366;SDS011;30086;57.660;12.000;2022-10-16T15:48:33;25.45;;;3.88;;
44366;SDS011;30086;57.660;12.000;2022-10-16T15:51:00;19.60;;;4.38;;
44366;SDS011;30086;57.660;12.000;2022-10-16T15:53:26;17.23;;;2.60;;
44366;SDS011;30086;57.660;12.000;2022-10-16T15:55:53;20.75;;;3.35;;
44366;SDS011;30086;57.660;12.000;2022-10-16T15:58:22;30.15;;;3.95;;
44366;SDS011;30086;57.660;12.000;2022-10-16T16:00:58;28.10;;;4.20;;
44366;SDS011;30086;57.660;12.000;2022-10-16T16:03:32;22.48;;;4.18;;
44366;SDS011;30086;57.660;12.000;2022-10-16T16:06:03;20.80;;;3.70;;
44366;SDS011;30086;57.660;12.000;2022-10-16T16:08:33;16.50;;;3.40;;
44366;SDS011;30086;57.660;12.000;2022-10-16T16:11:01;19.33;;;3.10;;
44366;SDS011;30086;57.660;12.000;2022-10-16T16:13:29;19.33;;;3.78;;
44366;SDS011;30086;57.660;12.000;2022-10-16T16:15:56;23.23;;;5.18;;
44366;SDS011;30086;57.660;12.000;2022-10-16T16:18:23;14.98;;;3.55;;
44366;SDS011;30086;57.660;12.000;2022-10-16T16:20:51;22.13;;;5.68;;
44366;SDS011;30086;57.660;12.000;2022-10-16T16:23:19;21.35;;;4.80;;
44366;SDS011;30086;57.660;12.000;2022-10-16T16:26:02;23.42;;;4.68;;
44366;SDS011;30086;57.660;12.000;2022-10-16T16:28:29;22.17;;;3.55;;
44366;SDS011;30086;57.660;12.000;2022-10-16T16:30:55;13.27;;;2.65;;
44366;SDS011;30086;57.660;12.000;2022-10-16T16:33:23;17.98;;;3.80;;
44366;SDS011;30086;57.660;12.000;2022-10-16T16:35:56;24.45;;;4.88;;
44366;SDS011;30086;57.660;12.000;2022-10-16T16:38:22;18.70;;;5.30;;
44366;SDS011;30086;57.660;12.000;2022-10-16T16:40:49;14.88;;;2.88;;
44366;SDS011;30086;57.660;12.000;2022-10-16T16:43:17;18.48;;;4.95;;
44366;SDS011;30086;57.660;12.000;2022-10-16T16:45:43;25.05;;;4.45;;
44366;SDS011;30086;57.660;12.000;2022-10-16T16:48:09;23.08;;;4.53;;
44366;SDS011;30086;57.660;12.000;2022-10-16T16:50:36;19.50;;;10.63;;